createdAt,value
2023-01-27T00:00:00.187Z,94.6
2023-01-27T00:05:00.114Z,94.7
2023-01-27T00:10:00.126Z,94.8
2023-01-27T00:15:00.144Z,94.9
2023-01-27T00:20:01.373Z,95
2023-01-27T00:25:00.118Z,95.1
2023-01-27T00:30:00.150Z,95.1
2023-01-27T00:35:00.167Z,95.1
2023-01-27T00:40:00.126Z,95
2023-01-27T00:45:00.130Z,95
2023-01-27T00:50:00.122Z,95.1
2023-01-27T00:55:00.128Z,95.1
2023-01-27T01:00:00.157Z,95.1
2023-01-27T01:05:00.092Z,95.1
2023-01-27T01:10:00.101Z,95
2023-01-27T01:15:00.130Z,95.1
2023-01-27T01:20:00.143Z,95.1
2023-01-27T01:25:00.108Z,95.1
2023-01-27T01:30:00.143Z,95.1
2023-01-27T01:35:00.134Z,95.1
2023-01-27T01:40:00.148Z,95.1
2023-01-27T01:45:00.117Z,95.1
2023-01-27T01:50:00.188Z,95.1
2023-01-27T01:55:00.133Z,95
2023-01-27T02:00:00.148Z,95
2023-01-27T02:05:00.130Z,95
2023-01-27T02:10:00.135Z,95
2023-01-27T02:15:00.126Z,95
2023-01-27T02:20:00.145Z,94.9
2023-01-27T02:25:00.131Z,94.9
2023-01-27T02:30:00.129Z,94.8
2023-01-27T02:35:00.127Z,94.5
2023-01-27T02:40:00.133Z,94.8
2023-01-27T02:45:00.113Z,94.8
2023-01-27T02:50:00.127Z,94.4
2023-01-27T02:55:00.112Z,94.5
2023-01-27T03:00:00.138Z,94.4
2023-01-27T03:05:00.093Z,94.5
2023-01-27T03:10:00.105Z,94.3
2023-01-27T03:15:00.114Z,94.3
2023-01-27T03:20:00.113Z,94.3
2023-01-27T03:25:00.095Z,94.3
2023-01-27T03:30:00.148Z,94.3
2023-01-27T03:35:00.144Z,94.2
2023-01-27T03:40:00.118Z,94.3
2023-01-27T03:45:00.124Z,94.3
2023-01-27T03:50:00.170Z,94.2
2023-01-27T03:55:00.135Z,94.2
2023-01-27T04:00:00.127Z,94.1
2023-01-27T04:05:00.131Z,94.1
2023-01-27T04:10:00.086Z,94.1
2023-01-27T04:15:00.185Z,94.1
2023-01-27T04:20:00.131Z,94.1
2023-01-27T04:25:00.144Z,94.1
2023-01-27T04:30:00.185Z,94.2
2023-01-27T04:35:00.168Z,94.2
2023-01-27T04:40:00.114Z,94.2
2023-01-27T04:45:00.198Z,94.2
2023-01-27T04:50:00.110Z,94.1
2023-01-27T04:55:00.126Z,94.2
2023-01-27T05:00:00.143Z,94.3
2023-01-27T05:05:00.112Z,94.3
2023-01-27T05:10:00.111Z,94.4
2023-01-27T05:15:00.136Z,94.4
2023-01-27T05:20:00.191Z,94.4
2023-01-27T05:25:00.115Z,94.5
2023-01-27T05:30:00.134Z,94.5
2023-01-27T05:35:00.156Z,94.7
2023-01-27T05:40:00.117Z,94.8
2023-01-27T05:45:00.120Z,94.8
2023-01-27T05:50:00.123Z,94.9
2023-01-27T05:55:00.132Z,95
2023-01-27T06:00:00.155Z,95.2
2023-01-27T06:05:00.129Z,95.4
2023-01-27T06:10:00.125Z,95.6
2023-01-27T06:15:00.143Z,95.7
2023-01-27T06:20:00.148Z,95.8
2023-01-27T06:25:00.103Z,95.9
2023-01-27T06:30:00.117Z,95.9
2023-01-27T06:35:00.128Z,95.9
2023-01-27T06:40:00.099Z,95.9
2023-01-27T06:45:00.102Z,95.9
2023-01-27T06:50:00.161Z,95.9
2023-01-27T06:55:00.122Z,95.9
2023-01-27T07:00:00.146Z,95.9
2023-01-27T07:05:00.100Z,95.9
2023-01-27T07:10:00.114Z,95.8
2023-01-27T07:15:00.117Z,95.8
2023-01-27T07:20:00.113Z,95.8
2023-01-27T07:25:00.102Z,95.7
2023-01-27T07:30:00.123Z,95.7
2023-01-27T07:35:00.142Z,95.7
2023-01-27T07:40:00.122Z,95.6
2023-01-27T07:45:00.116Z,95.7
2023-01-27T07:50:00.091Z,95.8
2023-01-27T07:55:00.118Z,95.8
2023-01-27T08:00:00.142Z,95.8
2023-01-27T08:05:00.116Z,96
2023-01-27T08:10:00.135Z,95.9
2023-01-27T08:15:00.133Z,95.9
2023-01-27T08:20:00.126Z,95.8
2023-01-27T08:25:00.118Z,95.8
2023-01-27T08:30:00.149Z,95.9
2023-01-27T08:35:00.158Z,95.9
2023-01-27T08:40:00.097Z,96.1
2023-01-27T08:45:00.138Z,96.1
2023-01-27T08:50:00.135Z,96.2
2023-01-27T08:55:00.138Z,96.1
2023-01-27T09:00:00.155Z,96.2
2023-01-27T09:05:00.107Z,96.2
2023-01-27T09:10:12.963Z,96.3
2023-01-27T09:15:00.161Z,96.3
2023-01-27T09:20:00.115Z,96.4
2023-01-27T09:25:00.117Z,96.4
2023-01-27T09:30:00.191Z,96.4
2023-01-27T09:35:00.311Z,96.4
2023-01-27T09:40:00.142Z,96.7
2023-01-27T09:45:00.142Z,96.8
2023-01-27T09:50:00.158Z,96.9
2023-01-27T09:55:00.112Z,96.9
2023-01-27T10:00:00.149Z,96.8
2023-01-27T10:05:00.106Z,96.8
2023-01-27T10:10:00.123Z,96.8
2023-01-27T10:15:00.123Z,96.8
2023-01-27T10:20:00.117Z,96.8
2023-01-27T10:25:00.093Z,96.8
2023-01-27T10:30:00.135Z,96.7
2023-01-27T10:35:00.112Z,96.8
2023-01-27T10:40:00.112Z,96.8
2023-01-27T10:45:00.117Z,96.8
2023-01-27T10:50:00.146Z,96.8
2023-01-27T10:55:00.128Z,96.8
2023-01-27T11:00:27.359Z,96.8
2023-01-27T11:05:00.111Z,96.9
2023-01-27T11:10:00.129Z,97
2023-01-27T11:15:00.174Z,97
2023-01-27T11:20:00.148Z,97
2023-01-27T11:25:00.109Z,97
2023-01-27T11:30:00.157Z,97.1
2023-01-27T11:35:00.134Z,97.1
2023-01-27T11:40:00.119Z,97
2023-01-27T11:45:00.146Z,97
2023-01-27T11:50:00.133Z,97
2023-01-27T11:55:00.146Z,97
2023-01-27T12:00:00.178Z,97
2023-01-27T12:05:00.234Z,97
2023-01-27T12:10:00.148Z,97
2023-01-27T12:15:00.263Z,97.2
2023-01-27T12:20:00.132Z,97.2
2023-01-27T12:25:00.128Z,97.3
2023-01-27T12:30:00.115Z,97.3
2023-01-27T12:35:00.130Z,97.2
2023-01-27T12:40:00.157Z,97.3
2023-01-27T12:45:00.184Z,97.3
2023-01-27T12:50:00.125Z,97.3
2023-01-27T12:55:00.139Z,97.2
2023-01-27T13:00:00.143Z,97.2
2023-01-27T13:05:00.137Z,97.2
2023-01-27T13:10:02.510Z,97.3
2023-01-27T13:15:00.240Z,97.3
2023-01-27T13:20:00.139Z,97.3
2023-01-27T13:25:00.103Z,97.4
2023-01-27T13:30:00.140Z,97.4
2023-01-27T13:35:00.136Z,97.5
2023-01-27T13:40:00.116Z,97.4
2023-01-27T13:45:00.144Z,97.4
2023-01-27T13:50:00.141Z,97.1
2023-01-27T13:55:00.111Z,97.3
2023-01-27T14:00:00.291Z,97.3
2023-01-27T14:05:00.202Z,97.3
2023-01-27T14:10:00.110Z,97.3
2023-01-27T14:15:00.178Z,97.3
2023-01-27T14:20:00.162Z,96.9
2023-01-27T14:25:00.143Z,97.3
2023-01-27T14:30:00.119Z,97.3
2023-01-27T14:35:00.124Z,97.2
2023-01-27T14:40:00.116Z,97.2
2023-01-27T14:45:04.011Z,97.2
2023-01-27T14:50:00.135Z,97.2
2023-01-27T14:55:00.133Z,97.3
2023-01-27T15:00:00.140Z,97.3
2023-01-27T15:05:00.392Z,97.3
2023-01-27T15:10:00.126Z,97.3
2023-01-27T15:15:00.125Z,97.2
2023-01-27T15:20:00.153Z,97.2
2023-01-27T15:25:00.172Z,97.2
2023-01-27T15:30:00.145Z,97.3
2023-01-27T15:35:00.134Z,97.3
2023-01-27T15:40:04.738Z,97.3
2023-01-27T15:45:00.153Z,97.3
2023-01-27T15:50:00.212Z,97.3
2023-01-27T15:55:00.131Z,97.4
2023-01-27T16:00:00.121Z,97.4
2023-01-27T16:05:00.100Z,97.4
2023-01-27T16:10:00.118Z,97.4
2023-01-27T16:15:00.110Z,97.5
2023-01-27T16:20:00.123Z,97.5
2023-01-27T16:25:00.201Z,97.5
2023-01-27T16:30:00.125Z,97.5
2023-01-27T16:35:00.332Z,97.5
2023-01-27T16:40:00.190Z,97.6
2023-01-27T16:45:00.106Z,97.6
2023-01-27T16:50:00.254Z,97.7
2023-01-27T16:55:00.163Z,97.7
2023-01-27T17:00:00.228Z,97.7
2023-01-27T17:05:00.112Z,97.7
2023-01-27T17:10:00.140Z,97.7
2023-01-27T17:15:00.156Z,97.7
2023-01-27T17:20:00.130Z,97.7
2023-01-27T17:25:00.127Z,97.7
2023-01-27T17:30:00.169Z,97.7
2023-01-27T17:35:00.148Z,97.7
2023-01-27T17:40:00.167Z,97.7
2023-01-27T17:45:00.129Z,97.8
2023-01-27T17:50:00.148Z,97.8
2023-01-27T17:55:00.169Z,97.8
2023-01-27T18:00:00.203Z,97.8
2023-01-27T18:05:00.110Z,97.8
2023-01-27T18:10:00.176Z,97.8
2023-01-27T18:15:00.122Z,97.8
2023-01-27T18:20:00.129Z,97.6
2023-01-27T18:25:00.136Z,97.8
2023-01-27T18:30:00.188Z,97.8
2023-01-27T18:35:00.137Z,97.8
2023-01-27T18:40:00.166Z,97.8
2023-01-27T18:45:00.172Z,97.8
2023-01-27T18:50:00.141Z,97.9
2023-01-27T18:55:00.117Z,97.9
2023-01-27T19:00:00.194Z,97.9
2023-01-27T19:05:00.174Z,97.9
2023-01-27T19:10:00.140Z,97.9
2023-01-27T19:15:00.126Z,97.9
2023-01-27T19:20:00.174Z,97.9
2023-01-27T19:25:00.114Z,97.9
2023-01-27T19:30:00.154Z,97.9
2023-01-27T19:35:00.255Z,97.8
2023-01-27T19:40:00.120Z,97.8
2023-01-27T19:45:00.120Z,97.8
2023-01-27T19:50:00.130Z,97.8
2023-01-27T19:55:00.149Z,97.7
2023-01-27T20:00:00.181Z,97.5
2023-01-27T20:05:00.126Z,97.3
2023-01-27T20:10:00.111Z,97.2
2023-01-27T20:15:00.132Z,97
2023-01-27T20:20:00.141Z,97.4
2023-01-27T20:25:00.122Z,97.5
2023-01-27T20:30:00.137Z,97.7
2023-01-27T20:35:00.155Z,97.8
2023-01-27T20:40:00.116Z,97.9
2023-01-27T20:45:00.108Z,98
2023-01-27T20:50:00.125Z,98.1
2023-01-27T20:55:00.122Z,98.2
2023-01-27T21:00:00.161Z,98.2
2023-01-27T21:05:00.117Z,98.3
2023-01-27T21:10:00.130Z,98.3
2023-01-27T21:15:00.129Z,98.4
2023-01-27T21:20:00.139Z,98.4
2023-01-27T21:25:00.106Z,98.5
2023-01-27T21:30:00.161Z,98.3
2023-01-27T21:35:00.161Z,98.6
2023-01-27T21:40:00.135Z,98.6
2023-01-27T21:45:00.128Z,98.5
2023-01-27T21:50:00.133Z,98.5
2023-01-27T21:55:00.138Z,98.6
2023-01-27T22:00:00.179Z,98.5
2023-01-27T22:05:00.176Z,98.6
2023-01-27T22:10:00.115Z,98.6
2023-01-27T22:15:00.116Z,98.6
2023-01-27T22:20:00.124Z,98.6
2023-01-27T22:25:00.107Z,98.6
2023-01-27T22:30:00.091Z,98.6
2023-01-27T22:35:00.152Z,98.6
2023-01-27T22:40:00.143Z,98.6
2023-01-27T22:45:00.111Z,98.5
2023-01-27T22:50:00.161Z,98.6
2023-01-27T22:55:00.119Z,98.6
2023-01-27T23:00:00.159Z,98.6
2023-01-27T23:05:00.117Z,98.5
2023-01-27T23:10:00.130Z,98.5
2023-01-27T23:15:00.109Z,98.5
2023-01-27T23:20:00.136Z,98.5
2023-01-27T23:25:00.155Z,98.5
2023-01-27T23:30:00.106Z,98.5
2023-01-27T23:35:00.119Z,98.5
2023-01-27T23:40:00.133Z,98.5
2023-01-27T23:45:00.128Z,98.6
2023-01-27T23:50:00.104Z,98.5
2023-01-27T23:55:00.134Z,98.5
